sensor_id;sensor_type;location;lat;lon;timestamp;P1;durP1;ratioP1;P2;durP2;ratioP2
51660;SDS011;37741;49.748;8.490;2022-09-23T00:02:49;5.13;;;2.67;;
51660;SDS011;37741;49.748;8.490;2022-09-23T00:05:16;4.68;;;2.90;;
51660;SDS011;37741;49.748;8.490;2022-09-23T00:07:42;6.32;;;2.88;;
51660;SDS011;37741;49.748;8.490;2022-09-23T00:10:11;6.32;;;3.25;;
51660;SDS011;37741;49.748;8.490;2022-09-23T00:16:09;5.45;;;2.92;;
51660;SDS011;37741;49.748;8.490;2022-09-23T00:22:01;6.05;;;2.92;;
51660;SDS011;37741;49.748;8.490;2022-09-23T00:24:27;3.83;;;2.47;;
51660;SDS011;37741;49.748;8.490;2022-09-23T00:26:56;6.65;;;3.50;;
51660;SDS011;37741;49.748;8.490;2022-09-23T00:36:11;4.53;;;3.22;;
51660;SDS011;37741;49.748;8.490;2022-09-23T00:41:06;6.32;;;2.90;;
51660;SDS011;37741;49.748;8.490;2022-09-23T00:47:16;5.90;;;3.08;;
51660;SDS011;37741;49.748;8.490;2022-09-23T00:50:05;4.63;;;2.60;;
51660;SDS011;37741;49.748;8.490;2022-09-23T00:53:20;4.80;;;2.58;;
51660;SDS011;37741;49.748;8.490;2022-09-23T00:59:23;4.38;;;2.58;;
51660;SDS011;37741;49.748;8.490;2022-09-23T01:04:55;4.95;;;2.60;;
51660;SDS011;37741;49.748;8.490;2022-09-23T01:07:21;4.65;;;2.65;;
51660;SDS011;37741;49.748;8.490;2022-09-23T01:09:46;4.43;;;2.67;;
51660;SDS011;37741;49.748;8.490;2022-09-23T01:34:06;4.00;;;2.13;;
51660;SDS011;37741;49.748;8.490;2022-09-23T01:40:21;4.50;;;2.08;;
51660;SDS011;37741;49.748;8.490;2022-09-23T01:47:32;4.35;;;2.13;;
51660;SDS011;37741;49.748;8.490;2022-09-23T02:09:56;3.60;;;1.90;;
51660;SDS011;37741;49.748;8.490;2022-09-23T02:12:26;4.10;;;2.20;;
51660;SDS011;37741;49.748;8.490;2022-09-23T02:14:58;5.72;;;1.92;;
51660;SDS011;37741;49.748;8.490;2022-09-23T02:17:30;3.88;;;2.28;;
51660;SDS011;37741;49.748;8.490;2022-09-23T02:20:05;3.97;;;2.10;;
51660;SDS011;37741;49.748;8.490;2022-09-23T02:22:33;4.53;;;2.20;;
51660;SDS011;37741;49.748;8.490;2022-09-23T02:40:40;3.20;;;1.70;;
51660;SDS011;37741;49.748;8.490;2022-09-23T02:43:37;7.70;;;2.45;;
51660;SDS011;37741;49.748;8.490;2022-09-23T02:46:45;3.42;;;1.83;;
51660;SDS011;37741;49.748;8.490;2022-09-23T02:52:39;3.05;;;1.80;;
51660;SDS011;37741;49.748;8.490;2022-09-23T02:58:29;3.50;;;2.00;;
51660;SDS011;37741;49.748;8.490;2022-09-23T03:10:18;5.10;;;2.45;;
51660;SDS011;37741;49.748;8.490;2022-09-23T03:12:25;3.75;;;1.90;;
51660;SDS011;37741;49.748;8.490;2022-09-23T03:15:25;3.53;;;2.20;;
51660;SDS011;37741;49.748;8.490;2022-09-23T03:18:13;4.93;;;1.70;;
51660;SDS011;37741;49.748;8.490;2022-09-23T03:20:50;3.95;;;1.98;;
51660;SDS011;37741;49.748;8.490;2022-09-23T03:23:23;3.33;;;2.33;;
51660;SDS011;37741;49.748;8.490;2022-09-23T03:25:53;4.40;;;2.10;;
51660;SDS011;37741;49.748;8.490;2022-09-23T03:28:21;5.80;;;2.10;;
51660;SDS011;37741;49.748;8.490;2022-09-23T03:30:50;4.57;;;1.67;;
51660;SDS011;37741;49.748;8.490;2022-09-23T03:33:18;6.30;;;1.98;;
51660;SDS011;37741;49.748;8.490;2022-09-23T03:35:53;5.20;;;2.13;;
51660;SDS011;37741;49.748;8.490;2022-09-23T03:42:12;2.92;;;1.75;;
51660;SDS011;37741;49.748;8.490;2022-09-23T03:44:46;3.20;;;2.25;;
51660;SDS011;37741;49.748;8.490;2022-09-23T03:47:16;4.15;;;2.05;;
51660;SDS011;37741;49.748;8.490;2022-09-23T03:49:43;4.63;;;2.60;;
51660;SDS011;37741;49.748;8.490;2022-09-23T03:52:12;3.75;;;2.33;;
51660;SDS011;37741;49.748;8.490;2022-09-23T03:54:41;3.67;;;2.35;;
51660;SDS011;37741;49.748;8.490;2022-09-23T03:57:08;3.38;;;2.05;;
51660;SDS011;37741;49.748;8.490;2022-09-23T03:59:34;5.38;;;2.05;;
51660;SDS011;37741;49.748;8.490;2022-09-23T04:02:00;4.28;;;2.22;;
51660;SDS011;37741;49.748;8.490;2022-09-23T04:04:26;5.47;;;2.67;;
51660;SDS011;37741;49.748;8.490;2022-09-23T04:06:53;5.05;;;2.55;;
51660;SDS011;37741;49.748;8.490;2022-09-23T04:09:20;4.25;;;2.00;;
51660;SDS011;37741;49.748;8.490;2022-09-23T04:11:47;4.45;;;2.40;;
51660;SDS011;37741;49.748;8.490;2022-09-23T04:14:13;4.25;;;2.35;;
51660;SDS011;37741;49.748;8.490;2022-09-23T04:16:39;3.45;;;2.38;;
51660;SDS011;37741;49.748;8.490;2022-09-23T04:19:05;3.70;;;2.42;;
51660;SDS011;37741;49.748;8.490;2022-09-23T04:21:31;4.57;;;2.53;;
51660;SDS011;37741;49.748;8.490;2022-09-23T04:23:57;6.07;;;2.10;;
51660;SDS011;37741;49.748;8.490;2022-09-23T04:26:23;3.65;;;2.30;;
51660;SDS011;37741;49.748;8.490;2022-09-23T04:28:48;4.68;;;2.33;;
51660;SDS011;37741;49.748;8.490;2022-09-23T04:31:14;8.25;;;2.60;;
51660;SDS011;37741;49.748;8.490;2022-09-23T04:33:39;2.75;;;2.03;;
51660;SDS011;37741;49.748;8.490;2022-09-23T04:36:05;3.83;;;2.45;;
51660;SDS011;37741;49.748;8.490;2022-09-23T04:38:31;3.33;;;2.28;;
51660;SDS011;37741;49.748;8.490;2022-09-23T04:40:57;4.50;;;2.35;;
51660;SDS011;37741;49.748;8.490;2022-09-23T04:43:22;3.28;;;2.22;;
51660;SDS011;37741;49.748;8.490;2022-09-23T04:45:58;4.07;;;2.35;;
51660;SDS011;37741;49.748;8.490;2022-09-23T04:48:25;3.83;;;2.22;;
51660;SDS011;37741;49.748;8.490;2022-09-23T04:50:51;3.72;;;2.38;;
51660;SDS011;37741;49.748;8.490;2022-09-23T04:53:16;5.50;;;2.30;;
51660;SDS011;37741;49.748;8.490;2022-09-23T04:55:43;4.15;;;2.58;;
51660;SDS011;37741;49.748;8.490;2022-09-23T04:58:09;3.85;;;2.15;;
51660;SDS011;37741;49.748;8.490;2022-09-23T05:00:35;5.65;;;2.50;;
51660;SDS011;37741;49.748;8.490;2022-09-23T05:03:01;3.60;;;2.30;;
51660;SDS011;37741;49.748;8.490;2022-09-23T05:05:27;4.07;;;2.00;;
51660;SDS011;37741;49.748;8.490;2022-09-23T05:07:54;3.75;;;2.75;;
51660;SDS011;37741;49.748;8.490;2022-09-23T05:10:20;4.07;;;2.33;;
51660;SDS011;37741;49.748;8.490;2022-09-23T05:12:47;3.20;;;2.10;;
51660;SDS011;37741;49.748;8.490;2022-09-23T05:15:13;5.45;;;2.33;;
51660;SDS011;37741;49.748;8.490;2022-09-23T05:17:40;3.40;;;2.28;;
51660;SDS011;37741;49.748;8.490;2022-09-23T05:20:07;4.50;;;2.55;;
51660;SDS011;37741;49.748;8.490;2022-09-23T05:22:33;3.95;;;2.38;;
51660;SDS011;37741;49.748;8.490;2022-09-23T05:24:59;3.88;;;2.30;;
51660;SDS011;37741;49.748;8.490;2022-09-23T05:27:26;5.00;;;2.58;;
51660;SDS011;37741;49.748;8.490;2022-09-23T05:29:52;3.92;;;2.45;;
51660;SDS011;37741;49.748;8.490;2022-09-23T05:32:18;3.80;;;2.65;;
51660;SDS011;37741;49.748;8.490;2022-09-23T05:34:44;5.05;;;2.45;;
51660;SDS011;37741;49.748;8.490;2022-09-23T05:37:09;3.15;;;2.28;;
51660;SDS011;37741;49.748;8.490;2022-09-23T05:39:35;3.50;;;2.30;;
51660;SDS011;37741;49.748;8.490;2022-09-23T05:42:01;3.20;;;2.25;;
51660;SDS011;37741;49.748;8.490;2022-09-23T05:44:26;3.28;;;2.10;;
51660;SDS011;37741;49.748;8.490;2022-09-23T05:46:52;4.45;;;2.33;;
51660;SDS011;37741;49.748;8.490;2022-09-23T05:49:17;3.67;;;2.35;;
51660;SDS011;37741;49.748;8.490;2022-09-23T05:51:43;6.03;;;2.75;;
51660;SDS011;37741;49.748;8.490;2022-09-23T06:01:07;3.10;;;1.95;;
51660;SDS011;37741;49.748;8.490;2022-09-23T06:06:59;5.35;;;2.75;;
51660;SDS011;37741;49.748;8.490;2022-09-23T06:09:25;5.85;;;2.63;;
51660;SDS011;37741;49.748;8.490;2022-09-23T06:11:50;6.32;;;2.40;;
51660;SDS011;37741;49.748;8.490;2022-09-23T06:14:16;5.93;;;2.30;;
51660;SDS011;37741;49.748;8.490;2022-09-23T06:16:42;4.78;;;2.05;;
51660;SDS011;37741;49.748;8.490;2022-09-23T06:19:08;4.57;;;2.45;;
51660;SDS011;37741;49.748;8.490;2022-09-23T06:21:36;4.28;;;2.45;;
51660;SDS011;37741;49.748;8.490;2022-09-23T06:24:02;3.85;;;2.50;;
51660;SDS011;37741;49.748;8.490;2022-09-23T06:26:30;3.47;;;2.35;;
51660;SDS011;37741;49.748;8.490;2022-09-23T06:28:59;4.20;;;2.20;;
51660;SDS011;37741;49.748;8.490;2022-09-23T06:31:26;4.32;;;2.33;;
51660;SDS011;37741;49.748;8.490;2022-09-23T06:33:52;4.65;;;2.53;;
51660;SDS011;37741;49.748;8.490;2022-09-23T06:36:18;5.60;;;2.42;;
51660;SDS011;37741;49.748;8.490;2022-09-23T06:38:44;10.85;;;2.50;;
51660;SDS011;37741;49.748;8.490;2022-09-23T06:41:20;3.63;;;2.28;;
51660;SDS011;37741;49.748;8.490;2022-09-23T06:53:28;5.65;;;2.63;;
51660;SDS011;37741;49.748;8.490;2022-09-23T06:59:32;3.58;;;2.13;;
51660;SDS011;37741;49.748;8.490;2022-09-23T07:05:26;3.70;;;1.95;;
51660;SDS011;37741;49.748;8.490;2022-09-23T07:11:17;3.92;;;2.35;;
51660;SDS011;37741;49.748;8.490;2022-09-23T07:16:56;4.85;;;2.20;;
51660;SDS011;37741;49.748;8.490;2022-09-23T07:19:23;9.93;;;2.80;;
51660;SDS011;37741;49.748;8.490;2022-09-23T07:21:50;4.78;;;2.63;;
51660;SDS011;37741;49.748;8.490;2022-09-23T07:24:15;4.38;;;2.78;;
51660;SDS011;37741;49.748;8.490;2022-09-23T07:26:41;4.43;;;2.55;;
51660;SDS011;37741;49.748;8.490;2022-09-23T07:29:10;3.92;;;2.17;;
51660;SDS011;37741;49.748;8.490;2022-09-23T07:31:37;4.28;;;2.65;;
51660;SDS011;37741;49.748;8.490;2022-09-23T07:34:03;4.05;;;2.47;;
51660;SDS011;37741;49.748;8.490;2022-09-23T07:36:29;3.95;;;2.42;;
51660;SDS011;37741;49.748;8.490;2022-09-23T07:38:56;3.65;;;2.28;;
51660;SDS011;37741;49.748;8.490;2022-09-23T07:41:26;3.55;;;2.33;;
51660;SDS011;37741;49.748;8.490;2022-09-23T07:43:53;4.25;;;2.55;;
51660;SDS011;37741;49.748;8.490;2022-09-23T07:46:21;4.78;;;2.40;;
51660;SDS011;37741;49.748;8.490;2022-09-23T07:48:46;5.28;;;2.53;;
51660;SDS011;37741;49.748;8.490;2022-09-23T07:51:16;4.80;;;2.53;;
51660;SDS011;37741;49.748;8.490;2022-09-23T07:53:47;4.63;;;2.10;;
51660;SDS011;37741;49.748;8.490;2022-09-23T07:56:14;3.92;;;2.47;;
51660;SDS011;37741;49.748;8.490;2022-09-23T07:58:43;4.65;;;2.50;;
51660;SDS011;37741;49.748;8.490;2022-09-23T08:01:10;4.35;;;2.78;;
51660;SDS011;37741;49.748;8.490;2022-09-23T08:03:36;3.40;;;2.42;;
51660;SDS011;37741;49.748;8.490;2022-09-23T08:08:33;2.78;;;2.10;;
51660;SDS011;37741;49.748;8.490;2022-09-23T08:11:03;3.38;;;2.60;;
51660;SDS011;37741;49.748;8.490;2022-09-23T08:13:30;4.63;;;2.65;;
51660;SDS011;37741;49.748;8.490;2022-09-23T08:15:56;3.70;;;2.70;;
51660;SDS011;37741;49.748;8.490;2022-09-23T08:18:22;3.50;;;2.33;;
51660;SDS011;37741;49.748;8.490;2022-09-23T08:20:48;6.45;;;2.90;;
51660;SDS011;37741;49.748;8.490;2022-09-23T08:23:14;4.07;;;2.72;;
51660;SDS011;37741;49.748;8.490;2022-09-23T08:25:40;3.30;;;2.13;;
51660;SDS011;37741;49.748;8.490;2022-09-23T08:28:07;5.57;;;2.95;;
51660;SDS011;37741;49.748;8.490;2022-09-23T08:30:32;3.60;;;2.78;;
51660;SDS011;37741;49.748;8.490;2022-09-23T08:32:58;3.45;;;2.40;;
51660;SDS011;37741;49.748;8.490;2022-09-23T08:35:24;4.07;;;2.40;;
51660;SDS011;37741;49.748;8.490;2022-09-23T08:37:50;3.15;;;2.25;;
51660;SDS011;37741;49.748;8.490;2022-09-23T08:40:15;4.13;;;2.25;;
51660;SDS011;37741;49.748;8.490;2022-09-23T08:42:42;3.50;;;2.17;;
51660;SDS011;37741;49.748;8.490;2022-09-23T08:45:14;4.32;;;2.35;;
51660;SDS011;37741;49.748;8.490;2022-09-23T08:50:49;3.83;;;2.10;;
51660;SDS011;37741;49.748;8.490;2022-09-23T08:53:26;3.17;;;2.20;;
51660;SDS011;37741;49.748;8.490;2022-09-23T08:55:59;3.70;;;2.40;;
51660;SDS011;37741;49.748;8.490;2022-09-23T09:01:40;3.85;;;2.50;;
51660;SDS011;37741;49.748;8.490;2022-09-23T09:09:45;3.53;;;2.17;;
51660;SDS011;37741;49.748;8.490;2022-09-23T09:12:17;3.85;;;2.53;;
51660;SDS011;37741;49.748;8.490;2022-09-23T09:14:49;4.55;;;2.60;;
51660;SDS011;37741;49.748;8.490;2022-09-23T09:17:26;3.63;;;2.40;;
51660;SDS011;37741;49.748;8.490;2022-09-23T09:22:57;3.03;;;2.40;;
51660;SDS011;37741;49.748;8.490;2022-09-23T09:30:52;3.03;;;2.08;;
51660;SDS011;37741;49.748;8.490;2022-09-23T09:33:25;4.45;;;2.15;;
51660;SDS011;37741;49.748;8.490;2022-09-23T09:38:34;4.43;;;2.50;;
51660;SDS011;37741;49.748;8.490;2022-09-23T09:41:08;3.67;;;2.17;;
51660;SDS011;37741;49.748;8.490;2022-09-23T09:43:39;4.05;;;2.83;;
51660;SDS011;37741;49.748;8.490;2022-09-23T09:48:53;3.60;;;2.50;;
51660;SDS011;37741;49.748;8.490;2022-09-23T09:51:25;3.65;;;2.47;;
51660;SDS011;37741;49.748;8.490;2022-09-23T09:53:54;4.13;;;2.30;;
51660;SDS011;37741;49.748;8.490;2022-09-23T09:56:41;3.58;;;2.25;;
51660;SDS011;37741;49.748;8.490;2022-09-23T09:59:09;5.03;;;2.42;;
51660;SDS011;37741;49.748;8.490;2022-09-23T10:01:39;4.68;;;2.22;;
51660;SDS011;37741;49.748;8.490;2022-09-23T10:04:05;2.80;;;1.90;;
51660;SDS011;37741;49.748;8.490;2022-09-23T10:06:43;4.75;;;2.40;;
51660;SDS011;37741;49.748;8.490;2022-09-23T10:09:48;3.92;;;2.50;;
51660;SDS011;37741;49.748;8.490;2022-09-23T10:12:16;6.15;;;3.13;;
51660;SDS011;37741;49.748;8.490;2022-09-23T10:14:44;3.60;;;2.17;;
51660;SDS011;37741;49.748;8.490;2022-09-23T10:17:33;4.57;;;2.45;;
51660;SDS011;37741;49.748;8.490;2022-09-23T10:20:06;4.57;;;2.60;;
51660;SDS011;37741;49.748;8.490;2022-09-23T10:22:37;4.57;;;2.55;;
51660;SDS011;37741;49.748;8.490;2022-09-23T10:25:15;9.80;;;2.67;;
51660;SDS011;37741;49.748;8.490;2022-09-23T10:27:48;4.75;;;2.92;;
51660;SDS011;37741;49.748;8.490;2022-09-23T10:32:47;5.78;;;3.00;;
51660;SDS011;37741;49.748;8.490;2022-09-23T10:35:15;4.72;;;3.13;;
51660;SDS011;37741;49.748;8.490;2022-09-23T10:46:39;4.75;;;2.80;;
51660;SDS011;37741;49.748;8.490;2022-09-23T10:49:23;4.38;;;3.10;;
51660;SDS011;37741;49.748;8.490;2022-09-23T10:57:47;7.75;;;4.82;;
51660;SDS011;37741;49.748;8.490;2022-09-23T11:06:02;8.90;;;4.38;;
51660;SDS011;37741;49.748;8.490;2022-09-23T11:08:47;7.82;;;4.72;;
51660;SDS011;37741;49.748;8.490;2022-09-23T11:21:40;5.47;;;4.10;;
51660;SDS011;37741;49.748;8.490;2022-09-23T11:30:29;10.82;;;4.78;;
51660;SDS011;37741;49.748;8.490;2022-09-23T11:33:12;16.95;;;5.60;;
51660;SDS011;37741;49.748;8.490;2022-09-23T11:35:48;48.85;;;8.32;;
51660;SDS011;37741;49.748;8.490;2022-09-23T11:38:20;86.70;;;11.02;;
51660;SDS011;37741;49.748;8.490;2022-09-23T11:41:00;57.08;;;8.80;;
51660;SDS011;37741;49.748;8.490;2022-09-23T11:43:42;28.65;;;6.70;;
51660;SDS011;37741;49.748;8.490;2022-09-23T11:46:17;32.13;;;6.07;;
51660;SDS011;37741;49.748;8.490;2022-09-23T11:48:57;7.43;;;4.32;;
51660;SDS011;37741;49.748;8.490;2022-09-23T11:51:33;19.30;;;5.63;;
51660;SDS011;37741;49.748;8.490;2022-09-23T11:56:52;9.90;;;4.05;;
51660;SDS011;37741;49.748;8.490;2022-09-23T11:59:35;8.52;;;4.43;;
51660;SDS011;37741;49.748;8.490;2022-09-23T12:04:41;9.50;;;4.72;;
51660;SDS011;37741;49.748;8.490;2022-09-23T12:07:13;10.55;;;4.15;;
51660;SDS011;37741;49.748;8.490;2022-09-23T12:28:09;6.97;;;4.68;;
51660;SDS011;37741;49.748;8.490;2022-09-23T12:30:40;6.70;;;3.90;;
51660;SDS011;37741;49.748;8.490;2022-09-23T12:33:08;6.25;;;4.00;;
51660;SDS011;37741;49.748;8.490;2022-09-23T12:35:45;7.35;;;4.25;;
51660;SDS011;37741;49.748;8.490;2022-09-23T12:38:22;4.72;;;3.42;;
51660;SDS011;37741;49.748;8.490;2022-09-23T12:41:24;5.15;;;3.78;;
51660;SDS011;37741;49.748;8.490;2022-09-23T12:43:57;9.38;;;4.53;;
51660;SDS011;37741;49.748;8.490;2022-09-23T12:46:37;5.88;;;3.53;;
51660;SDS011;37741;49.748;8.490;2022-09-23T12:49:04;14.48;;;4.70;;
51660;SDS011;37741;49.748;8.490;2022-09-23T12:52:10;6.05;;;3.92;;
51660;SDS011;37741;49.748;8.490;2022-09-23T12:54:36;7.32;;;4.10;;
51660;SDS011;37741;49.748;8.490;2022-09-23T12:57:04;8.65;;;4.78;;
51660;SDS011;37741;49.748;8.490;2022-09-23T12:59:58;7.82;;;3.83;;
51660;SDS011;37741;49.748;8.490;2022-09-23T13:07:59;11.70;;;4.35;;
51660;SDS011;37741;49.748;8.490;2022-09-23T13:10:30;6.40;;;3.85;;
51660;SDS011;37741;49.748;8.490;2022-09-23T13:13:01;8.68;;;4.10;;
51660;SDS011;37741;49.748;8.490;2022-09-23T13:15:29;5.15;;;3.35;;
51660;SDS011;37741;49.748;8.490;2022-09-23T13:20:42;8.07;;;3.50;;
51660;SDS011;37741;49.748;8.490;2022-09-23T13:23:24;4.78;;;3.47;;
51660;SDS011;37741;49.748;8.490;2022-09-23T13:25:57;6.95;;;3.67;;
51660;SDS011;37741;49.748;8.490;2022-09-23T13:28:27;7.13;;;4.00;;
51660;SDS011;37741;49.748;8.490;2022-09-23T13:31:17;7.90;;;4.25;;
51660;SDS011;37741;49.748;8.490;2022-09-23T13:33:45;5.78;;;3.35;;
51660;SDS011;37741;49.748;8.490;2022-09-23T13:36:18;6.28;;;3.72;;
51660;SDS011;37741;49.748;8.490;2022-09-23T13:38:44;9.25;;;3.22;;
51660;SDS011;37741;49.748;8.490;2022-09-23T13:41:12;4.10;;;2.50;;
51660;SDS011;37741;49.748;8.490;2022-09-23T13:43:48;7.82;;;3.40;;
51660;SDS011;37741;49.748;8.490;2022-09-23T13:46:18;8.18;;;3.25;;
51660;SDS011;37741;49.748;8.490;2022-09-23T13:48:47;5.95;;;3.42;;
51660;SDS011;37741;49.748;8.490;2022-09-23T13:51:25;7.53;;;3.88;;
51660;SDS011;37741;49.748;8.490;2022-09-23T13:53:58;6.80;;;2.95;;
51660;SDS011;37741;49.748;8.490;2022-09-23T13:56:27;6.38;;;3.15;;
51660;SDS011;37741;49.748;8.490;2022-09-23T13:59:09;4.25;;;2.70;;
51660;SDS011;37741;49.748;8.490;2022-09-23T14:01:44;7.90;;;3.08;;
51660;SDS011;37741;49.748;8.490;2022-09-23T14:04:23;5.05;;;3.28;;
51660;SDS011;37741;49.748;8.490;2022-09-23T14:06:50;6.38;;;2.97;;
51660;SDS011;37741;49.748;8.490;2022-09-23T14:09:16;4.80;;;2.70;;
51660;SDS011;37741;49.748;8.490;2022-09-23T14:11:43;5.57;;;2.72;;
51660;SDS011;37741;49.748;8.490;2022-09-23T14:14:12;4.15;;;2.55;;
51660;SDS011;37741;49.748;8.490;2022-09-23T14:16:39;4.10;;;2.70;;
51660;SDS011;37741;49.748;8.490;2022-09-23T14:19:06;6.43;;;2.90;;
51660;SDS011;37741;49.748;8.490;2022-09-23T14:21:41;3.60;;;2.30;;
51660;SDS011;37741;49.748;8.490;2022-09-23T14:26:57;5.75;;;2.42;;
51660;SDS011;37741;49.748;8.490;2022-09-23T14:29:26;5.10;;;2.97;;
51660;SDS011;37741;49.748;8.490;2022-09-23T14:31:56;4.50;;;2.83;;
51660;SDS011;37741;49.748;8.490;2022-09-23T14:37:18;6.15;;;3.00;;
51660;SDS011;37741;49.748;8.490;2022-09-23T14:42:45;3.47;;;2.42;;
51660;SDS011;37741;49.748;8.490;2022-09-23T14:45:15;8.38;;;2.55;;
51660;SDS011;37741;49.748;8.490;2022-09-23T14:47:58;4.43;;;2.45;;
51660;SDS011;37741;49.748;8.490;2022-09-23T14:50:28;6.88;;;2.17;;
51660;SDS011;37741;49.748;8.490;2022-09-23T14:55:51;4.88;;;2.40;;
51660;SDS011;37741;49.748;8.490;2022-09-23T14:58:22;4.80;;;2.42;;
51660;SDS011;37741;49.748;8.490;2022-09-23T15:00:58;4.68;;;2.20;;
51660;SDS011;37741;49.748;8.490;2022-09-23T15:03:25;4.15;;;2.20;;
51660;SDS011;37741;49.748;8.490;2022-09-23T15:05:59;4.60;;;2.13;;
51660;SDS011;37741;49.748;8.490;2022-09-23T15:08:30;5.30;;;3.22;;
51660;SDS011;37741;49.748;8.490;2022-09-23T15:10:57;4.00;;;2.40;;
51660;SDS011;37741;49.748;8.490;2022-09-23T15:13:28;3.08;;;1.88;;
51660;SDS011;37741;49.748;8.490;2022-09-23T15:15:56;5.75;;;2.33;;
51660;SDS011;37741;49.748;8.490;2022-09-23T15:18:26;3.80;;;1.88;;
51660;SDS011;37741;49.748;8.490;2022-09-23T15:21:02;5.30;;;2.03;;
51660;SDS011;37741;49.748;8.490;2022-09-23T15:26:07;3.78;;;2.05;;
51660;SDS011;37741;49.748;8.490;2022-09-23T15:28:35;5.00;;;2.30;;
51660;SDS011;37741;49.748;8.490;2022-09-23T15:31:01;4.72;;;2.08;;
51660;SDS011;37741;49.748;8.490;2022-09-23T15:33:27;3.60;;;1.80;;
51660;SDS011;37741;49.748;8.490;2022-09-23T15:35:53;3.78;;;1.80;;
51660;SDS011;37741;49.748;8.490;2022-09-23T15:38:20;7.35;;;2.65;;
51660;SDS011;37741;49.748;8.490;2022-09-23T15:40:46;3.95;;;2.40;;
51660;SDS011;37741;49.748;8.490;2022-09-23T15:43:22;8.25;;;2.13;;
51660;SDS011;37741;49.748;8.490;2022-09-23T15:45:53;4.10;;;1.88;;
51660;SDS011;37741;49.748;8.490;2022-09-23T15:48:23;6.13;;;2.35;;
51660;SDS011;37741;49.748;8.490;2022-09-23T15:51:03;2.53;;;1.70;;
51660;SDS011;37741;49.748;8.490;2022-09-23T15:53:32;3.20;;;1.75;;
51660;SDS011;37741;49.748;8.490;2022-09-23T15:55:58;4.05;;;1.80;;
51660;SDS011;37741;49.748;8.490;2022-09-23T15:58:24;4.55;;;2.20;;
51660;SDS011;37741;49.748;8.490;2022-09-23T16:00:50;4.25;;;2.10;;
51660;SDS011;37741;49.748;8.490;2022-09-23T16:03:17;3.10;;;1.60;;
51660;SDS011;37741;49.748;8.490;2022-09-23T16:05:45;3.17;;;2.00;;
51660;SDS011;37741;49.748;8.490;2022-09-23T16:08:12;4.47;;;2.10;;
51660;SDS011;37741;49.748;8.490;2022-09-23T16:10:38;3.42;;;1.85;;
51660;SDS011;37741;49.748;8.490;2022-09-23T16:13:06;5.10;;;2.20;;
51660;SDS011;37741;49.748;8.490;2022-09-23T16:15:35;5.32;;;2.00;;
51660;SDS011;37741;49.748;8.490;2022-09-23T16:18:03;5.40;;;1.98;;
51660;SDS011;37741;49.748;8.490;2022-09-23T16:20:30;4.65;;;2.00;;
51660;SDS011;37741;49.748;8.490;2022-09-23T16:25:38;3.40;;;1.92;;
51660;SDS011;37741;49.748;8.490;2022-09-23T16:28:04;2.47;;;1.67;;
51660;SDS011;37741;49.748;8.490;2022-09-23T16:30:30;3.10;;;1.70;;
51660;SDS011;37741;49.748;8.490;2022-09-23T16:32:57;3.65;;;1.90;;
51660;SDS011;37741;49.748;8.490;2022-09-23T16:35:25;5.25;;;2.28;;
51660;SDS011;37741;49.748;8.490;2022-09-23T16:37:52;2.90;;;1.83;;
51660;SDS011;37741;49.748;8.490;2022-09-23T16:40:22;5.05;;;2.65;;
51660;SDS011;37741;49.748;8.490;2022-09-23T16:42:49;73.55;;;8.93;;
51660;SDS011;37741;49.748;8.490;2022-09-23T16:45:17;45.28;;;5.13;;
51660;SDS011;37741;49.748;8.490;2022-09-23T16:47:46;6.60;;;2.22;;
51660;SDS011;37741;49.748;8.490;2022-09-23T16:50:13;4.18;;;2.05;;
51660;SDS011;37741;49.748;8.490;2022-09-23T16:52:41;14.13;;;3.85;;
51660;SDS011;37741;49.748;8.490;2022-09-23T16:55:08;11.68;;;3.03;;
51660;SDS011;37741;49.748;8.490;2022-09-23T16:57:36;3.75;;;2.08;;
51660;SDS011;37741;49.748;8.490;2022-09-23T17:00:04;8.45;;;2.22;;
51660;SDS011;37741;49.748;8.490;2022-09-23T17:02:54;5.38;;;2.22;;
51660;SDS011;37741;49.748;8.490;2022-09-23T17:05:38;6.25;;;2.20;;
51660;SDS011;37741;49.748;8.490;2022-09-23T17:08:04;5.15;;;2.25;;
51660;SDS011;37741;49.748;8.490;2022-09-23T17:10:31;5.03;;;2.10;;
51660;SDS011;37741;49.748;8.490;2022-09-23T17:12:57;5.43;;;2.30;;
51660;SDS011;37741;49.748;8.490;2022-09-23T17:15:24;8.20;;;2.25;;
51660;SDS011;37741;49.748;8.490;2022-09-23T17:17:50;5.68;;;2.17;;
51660;SDS011;37741;49.748;8.490;2022-09-23T17:20:15;6.70;;;2.10;;
51660;SDS011;37741;49.748;8.490;2022-09-23T17:22:41;10.75;;;2.28;;
51660;SDS011;37741;49.748;8.490;2022-09-23T17:25:07;7.53;;;2.17;;
51660;SDS011;37741;49.748;8.490;2022-09-23T17:27:34;4.32;;;1.77;;
51660;SDS011;37741;49.748;8.490;2022-09-23T17:30:01;4.20;;;2.25;;
51660;SDS011;37741;49.748;8.490;2022-09-23T17:32:27;2.60;;;1.70;;
51660;SDS011;37741;49.748;8.490;2022-09-23T17:34:52;5.32;;;1.90;;
51660;SDS011;37741;49.748;8.490;2022-09-23T17:37:18;3.92;;;1.90;;
51660;SDS011;37741;49.748;8.490;2022-09-23T17:39:44;5.40;;;1.88;;
51660;SDS011;37741;49.748;8.490;2022-09-23T17:42:10;7.10;;;2.28;;
51660;SDS011;37741;49.748;8.490;2022-09-23T17:44:35;11.50;;;2.40;;
51660;SDS011;37741;49.748;8.490;2022-09-23T17:47:01;5.40;;;2.28;;
51660;SDS011;37741;49.748;8.490;2022-09-23T17:49:29;3.65;;;2.08;;
51660;SDS011;37741;49.748;8.490;2022-09-23T17:52:00;3.83;;;2.10;;
51660;SDS011;37741;49.748;8.490;2022-09-23T17:54:28;3.55;;;2.17;;
51660;SDS011;37741;49.748;8.490;2022-09-23T17:56:56;2.17;;;1.27;;
51660;SDS011;37741;49.748;8.490;2022-09-23T17:59:24;5.57;;;1.77;;
51660;SDS011;37741;49.748;8.490;2022-09-23T18:01:50;5.38;;;1.90;;
51660;SDS011;37741;49.748;8.490;2022-09-23T18:04:16;4.80;;;2.10;;
51660;SDS011;37741;49.748;8.490;2022-09-23T18:06:42;4.95;;;1.90;;
51660;SDS011;37741;49.748;8.490;2022-09-23T18:09:07;3.42;;;1.95;;
51660;SDS011;37741;49.748;8.490;2022-09-23T18:11:37;6.80;;;2.40;;
51660;SDS011;37741;49.748;8.490;2022-09-23T18:14:16;3.20;;;1.95;;
51660;SDS011;37741;49.748;8.490;2022-09-23T18:16:44;4.32;;;1.92;;
51660;SDS011;37741;49.748;8.490;2022-09-23T18:19:12;4.18;;;1.75;;
51660;SDS011;37741;49.748;8.490;2022-09-23T18:21:40;5.07;;;1.77;;
51660;SDS011;37741;49.748;8.490;2022-09-23T18:24:08;6.18;;;2.00;;
51660;SDS011;37741;49.748;8.490;2022-09-23T18:26:34;7.43;;;2.10;;
51660;SDS011;37741;49.748;8.490;2022-09-23T18:29:00;2.92;;;1.90;;
51660;SDS011;37741;49.748;8.490;2022-09-23T18:31:26;4.18;;;2.10;;
51660;SDS011;37741;49.748;8.490;2022-09-23T18:33:53;5.35;;;2.08;;
51660;SDS011;37741;49.748;8.490;2022-09-23T18:36:20;4.70;;;2.30;;
51660;SDS011;37741;49.748;8.490;2022-09-23T18:38:47;5.65;;;2.08;;
51660;SDS011;37741;49.748;8.490;2022-09-23T18:41:14;3.17;;;1.77;;
51660;SDS011;37741;49.748;8.490;2022-09-23T18:43:40;4.38;;;1.75;;
51660;SDS011;37741;49.748;8.490;2022-09-23T18:46:08;2.92;;;1.80;;
51660;SDS011;37741;49.748;8.490;2022-09-23T18:48:36;6.32;;;1.80;;
51660;SDS011;37741;49.748;8.490;2022-09-23T18:51:21;3.40;;;1.67;;
51660;SDS011;37741;49.748;8.490;2022-09-23T18:53:49;8.70;;;2.03;;
51660;SDS011;37741;49.748;8.490;2022-09-23T18:56:21;2.92;;;1.60;;
51660;SDS011;37741;49.748;8.490;2022-09-23T18:59:03;4.10;;;2.30;;
51660;SDS011;37741;49.748;8.490;2022-09-23T19:01:30;3.30;;;2.10;;
51660;SDS011;37741;49.748;8.490;2022-09-23T19:03:57;3.78;;;2.10;;
51660;SDS011;37741;49.748;8.490;2022-09-23T19:06:25;5.22;;;1.92;;
51660;SDS011;37741;49.748;8.490;2022-09-23T19:08:52;3.85;;;1.90;;
51660;SDS011;37741;49.748;8.490;2022-09-23T19:11:19;3.17;;;1.77;;
51660;SDS011;37741;49.748;8.490;2022-09-23T19:13:46;3.95;;;2.42;;
51660;SDS011;37741;49.748;8.490;2022-09-23T19:16:16;3.50;;;1.63;;
51660;SDS011;37741;49.748;8.490;2022-09-23T19:18:42;2.83;;;1.77;;
51660;SDS011;37741;49.748;8.490;2022-09-23T19:21:10;6.05;;;2.15;;
51660;SDS011;37741;49.748;8.490;2022-09-23T19:23:38;4.15;;;2.20;;
51660;SDS011;37741;49.748;8.490;2022-09-23T19:26:08;3.13;;;1.40;;
51660;SDS011;37741;49.748;8.490;2022-09-23T19:28:36;5.05;;;2.53;;